Atkinsons Mills, Pennsylvania
Current Conditions -  °F | °C
As of 9:55 PM on Saturday 25 Oct 2014 (Local Time) from KUNV Reporting Station
Broken Clouds Broken Clouds  
Wind Chill: 62°   Ceiling: 8500
Heat Index: 62°   Visibility: 10mi
Dew Point: 48°   Wind: 14mph
Humidity: 61%   Direction: 310°NW
Pressure: 29.68"   Gusts: 24mph
Location:  40.5138°N, 77.7384°W
Report Text: KUNV 260155Z AUTO 31012G21KT 10SM SCT060 BKN085 17/09 A2968 RMK AO2 T01650089
Loading
Personal Weather Stations






























Interactive Weather Map New forecast layout! Learn more

10-Day Weather Forecast

Advertisements
Track Severe Weather on mobile